sensor_id;sensor_type;location;lat;lon;timestamp;pressure;altitude;pressure_sealevel;temperature;humidity
72294;BME280;60632;49.236;8.398;2022-12-18T00:00:40;101869.50;;;-4.99;70.26
72294;BME280;60632;49.236;8.398;2022-12-18T00:03:41;101862.78;;;-4.90;70.46
72294;BME280;60632;49.236;8.398;2022-12-18T00:06:41;101861.84;;;-4.89;70.14
72294;BME280;60632;49.236;8.398;2022-12-18T00:09:41;101860.16;;;-4.90;69.91
72294;BME280;60632;49.236;8.398;2022-12-18T00:12:42;101847.13;;;-4.93;69.91
72294;BME280;60632;49.236;8.398;2022-12-18T00:15:42;101845.69;;;-4.99;70.39
72294;BME280;60632;49.236;8.398;2022-12-18T00:18:43;101850.34;;;-5.02;70.71
72294;BME280;60632;49.236;8.398;2022-12-18T00:21:43;101856.66;;;-5.05;70.68
72294;BME280;60632;49.236;8.398;2022-12-18T00:24:44;101859.88;;;-5.00;70.21
72294;BME280;60632;49.236;8.398;2022-12-18T00:27:44;101862.53;;;-5.00;70.56
72294;BME280;60632;49.236;8.398;2022-12-18T00:30:44;101857.97;;;-4.98;70.10
72294;BME280;60632;49.236;8.398;2022-12-18T00:33:45;101861.00;;;-4.89;70.42
72294;BME280;60632;49.236;8.398;2022-12-18T00:36:46;101869.50;;;-4.84;70.07
72294;BME280;60632;49.236;8.398;2022-12-18T00:39:47;101863.53;;;-4.88;70.12
72294;BME280;60632;49.236;8.398;2022-12-18T00:42:48;101870.41;;;-4.85;70.35
72294;BME280;60632;49.236;8.398;2022-12-18T00:45:57;101861.84;;;-4.89;70.31
72294;BME280;60632;49.236;8.398;2022-12-18T00:48:57;101864.88;;;-4.95;70.32
72294;BME280;60632;49.236;8.398;2022-12-18T00:51:58;101888.00;;;-4.99;70.93
72294;BME280;60632;49.236;8.398;2022-12-18T00:54:58;101900.09;;;-4.95;70.32
72294;BME280;60632;49.236;8.398;2022-12-18T00:57:58;101876.41;;;-4.96;70.22
72294;BME280;60632;49.236;8.398;2022-12-18T01:00:59;101854.22;;;-4.94;70.86
72294;BME280;60632;49.236;8.398;2022-12-18T01:04:00;101859.50;;;-4.94;70.06
72294;BME280;60632;49.236;8.398;2022-12-18T01:07:00;101858.16;;;-5.01;70.78
72294;BME280;60632;49.236;8.398;2022-12-18T01:10:01;101876.31;;;-5.09;70.48
72294;BME280;60632;49.236;8.398;2022-12-18T01:13:01;101877.91;;;-5.21;70.58
72294;BME280;60632;49.236;8.398;2022-12-18T01:16:01;101877.91;;;-5.35;71.14
72294;BME280;60632;49.236;8.398;2022-12-18T01:19:02;101881.00;;;-5.43;70.95
72294;BME280;60632;49.236;8.398;2022-12-18T01:22:02;101864.22;;;-5.42;70.93
72294;BME280;60632;49.236;8.398;2022-12-18T01:25:03;101856.78;;;-5.35;70.54
72294;BME280;60632;49.236;8.398;2022-12-18T01:28:04;101858.75;;;-5.24;70.65
72294;BME280;60632;49.236;8.398;2022-12-18T01:34:11;101856.03;;;-5.23;70.11
72294;BME280;60632;49.236;8.398;2022-12-18T01:37:11;101859.31;;;-5.19;70.64
72294;BME280;60632;49.236;8.398;2022-12-18T01:40:11;101862.13;;;-5.08;70.26
72294;BME280;60632;49.236;8.398;2022-12-18T01:43:12;101853.28;;;-5.07;69.89
72294;BME280;60632;49.236;8.398;2022-12-18T01:46:12;101862.31;;;-5.11;70.06
72294;BME280;60632;49.236;8.398;2022-12-18T01:49:13;101874.81;;;-5.13;70.40
72294;BME280;60632;49.236;8.398;2022-12-18T01:52:13;101884.25;;;-5.23;70.37
72294;BME280;60632;49.236;8.398;2022-12-18T01:55:14;101881.03;;;-5.28;70.55
72294;BME280;60632;49.236;8.398;2022-12-18T01:58:17;101874.06;;;-5.29;70.40
72294;BME280;60632;49.236;8.398;2022-12-18T02:01:18;101874.97;;;-5.30;70.42
72294;BME280;60632;49.236;8.398;2022-12-18T02:04:21;101859.97;;;-5.16;70.03
72294;BME280;60632;49.236;8.398;2022-12-18T02:14:03;101861.00;;;-4.89;69.56
72294;BME280;60632;49.236;8.398;2022-12-18T02:17:06;101867.13;;;-4.89;69.76
72294;BME280;60632;49.236;8.398;2022-12-18T02:20:15;101870.44;;;-5.00;69.60
72294;BME280;60632;49.236;8.398;2022-12-18T02:29:22;101873.63;;;-4.95;69.63
72294;BME280;60632;49.236;8.398;2022-12-18T02:32:28;101864.78;;;-4.94;69.54
72294;BME280;60632;49.236;8.398;2022-12-18T02:35:30;101864.59;;;-4.90;70.10
72294;BME280;60632;49.236;8.398;2022-12-18T02:38:31;101866.28;;;-4.89;69.49
72294;BME280;60632;49.236;8.398;2022-12-18T02:41:33;101878.34;;;-4.85;69.85
72294;BME280;60632;49.236;8.398;2022-12-18T02:44:34;101883.06;;;-4.76;69.33
72294;BME280;60632;49.236;8.398;2022-12-18T02:47:39;101873.78;;;-4.69;69.39
72294;BME280;60632;49.236;8.398;2022-12-18T02:50:44;101883.06;;;-4.76;69.80
72294;BME280;60632;49.236;8.398;2022-12-18T02:53:49;101882.31;;;-4.78;69.94
72294;BME280;60632;49.236;8.398;2022-12-18T02:56:51;101877.78;;;-4.76;69.67
72294;BME280;60632;49.236;8.398;2022-12-18T02:59:58;101872.69;;;-4.79;69.68
72294;BME280;60632;49.236;8.398;2022-12-18T03:06:03;101866.09;;;-5.01;70.36
72294;BME280;60632;49.236;8.398;2022-12-18T03:09:07;101873.09;;;-5.14;70.43
72294;BME280;60632;49.236;8.398;2022-12-18T03:12:31;101862.91;;;-5.20;70.39
72294;BME280;60632;49.236;8.398;2022-12-18T03:15:37;101876.03;;;-5.19;70.42
72294;BME280;60632;49.236;8.398;2022-12-18T03:18:43;101866.50;;;-5.21;70.18
72294;BME280;60632;49.236;8.398;2022-12-18T03:21:47;101856.47;;;-5.30;70.33
72294;BME280;60632;49.236;8.398;2022-12-18T03:24:48;101863.88;;;-5.35;70.44
72294;BME280;60632;49.236;8.398;2022-12-18T03:27:49;101867.59;;;-5.40;71.17
72294;BME280;60632;49.236;8.398;2022-12-18T03:30:52;101878.38;;;-5.43;70.98
72294;BME280;60632;49.236;8.398;2022-12-18T03:33:57;101853.47;;;-5.38;70.71
72294;BME280;60632;49.236;8.398;2022-12-18T03:36:59;101853.47;;;-5.38;70.65
72294;BME280;60632;49.236;8.398;2022-12-18T03:40:01;101859.97;;;-5.44;70.73
72294;BME280;60632;49.236;8.398;2022-12-18T03:43:12;101857.63;;;-5.49;70.87
72294;BME280;60632;49.236;8.398;2022-12-18T03:55:30;101862.63;;;-5.30;70.40
72294;BME280;60632;49.236;8.398;2022-12-18T03:58:32;101863.66;;;-5.32;70.03
72294;BME280;60632;49.236;8.398;2022-12-18T04:01:35;101858.84;;;-5.40;70.34
72294;BME280;60632;49.236;8.398;2022-12-18T04:04:37;101856.31;;;-5.42;70.08
72294;BME280;60632;49.236;8.398;2022-12-18T04:07:39;101855.34;;;-5.55;70.44
72294;BME280;60632;49.236;8.398;2022-12-18T04:10:40;101853.25;;;-5.64;71.16
72294;BME280;60632;49.236;8.398;2022-12-18T04:13:41;101846.47;;;-5.68;70.94
72294;BME280;60632;49.236;8.398;2022-12-18T04:16:42;101852.38;;;-5.79;71.10
72294;BME280;60632;49.236;8.398;2022-12-18T04:19:42;101853.34;;;-5.80;71.48
72294;BME280;60632;49.236;8.398;2022-12-18T04:22:43;101848.91;;;-5.79;71.11
72294;BME280;60632;49.236;8.398;2022-12-18T04:25:43;101853.16;;;-5.77;71.17
72294;BME280;60632;49.236;8.398;2022-12-18T04:28:43;101846.19;;;-5.78;70.95
72294;BME280;60632;49.236;8.398;2022-12-18T04:31:44;101847.56;;;-5.72;70.95
72294;BME280;60632;49.236;8.398;2022-12-18T04:34:44;101843.06;;;-5.70;70.64
72294;BME280;60632;49.236;8.398;2022-12-18T04:37:44;101846.06;;;-5.76;71.17
72294;BME280;60632;49.236;8.398;2022-12-18T04:40:45;101854.34;;;-5.82;70.88
72294;BME280;60632;49.236;8.398;2022-12-18T04:43:45;101860.09;;;-5.90;71.30
72294;BME280;60632;49.236;8.398;2022-12-18T04:46:45;101843.31;;;-5.89;71.15
72294;BME280;60632;49.236;8.398;2022-12-18T04:49:46;101845.31;;;-5.78;70.75
72294;BME280;60632;49.236;8.398;2022-12-18T04:52:46;101854.00;;;-5.76;70.84
72294;BME280;60632;49.236;8.398;2022-12-18T04:55:47;101849.06;;;-5.82;70.77
72294;BME280;60632;49.236;8.398;2022-12-18T04:58:47;101844.38;;;-5.77;70.61
72294;BME280;60632;49.236;8.398;2022-12-18T05:01:48;101838.75;;;-5.71;70.27
72294;BME280;60632;49.236;8.398;2022-12-18T05:04:48;101837.25;;;-5.61;70.28
72294;BME280;60632;49.236;8.398;2022-12-18T05:07:48;101834.31;;;-5.56;69.83
72294;BME280;60632;49.236;8.398;2022-12-18T05:10:49;101855.16;;;-5.52;70.43
72294;BME280;60632;49.236;8.398;2022-12-18T05:13:49;101855.91;;;-5.50;70.46
72294;BME280;60632;49.236;8.398;2022-12-18T05:16:49;101861.19;;;-5.50;70.22
72294;BME280;60632;49.236;8.398;2022-12-18T05:19:50;101858.19;;;-5.44;70.50
72294;BME280;60632;49.236;8.398;2022-12-18T05:22:51;101856.50;;;-5.45;69.84
72294;BME280;60632;49.236;8.398;2022-12-18T05:28:56;101859.69;;;-5.40;69.80
72294;BME280;60632;49.236;8.398;2022-12-18T05:31:56;101854.59;;;-5.43;70.05
72294;BME280;60632;49.236;8.398;2022-12-18T05:34:57;101848.81;;;-5.49;69.81
72294;BME280;60632;49.236;8.398;2022-12-18T05:37:57;101841.38;;;-5.57;70.57
72294;BME280;60632;49.236;8.398;2022-12-18T05:40:57;101851.56;;;-5.65;70.07
72294;BME280;60632;49.236;8.398;2022-12-18T05:43:58;101841.56;;;-5.74;70.93
72294;BME280;60632;49.236;8.398;2022-12-18T05:46:59;101842.59;;;-5.77;70.26
72294;BME280;60632;49.236;8.398;2022-12-18T05:49:59;101831.19;;;-5.77;70.23
72294;BME280;60632;49.236;8.398;2022-12-18T05:52:59;101835.97;;;-5.84;70.43
72294;BME280;60632;49.236;8.398;2022-12-18T05:56:00;101837.78;;;-5.84;70.55
72294;BME280;60632;49.236;8.398;2022-12-18T05:59:01;101845.69;;;-5.84;70.34
72294;BME280;60632;49.236;8.398;2022-12-18T06:02:02;101849.63;;;-5.92;70.63
72294;BME280;60632;49.236;8.398;2022-12-18T06:05:02;101855.28;;;-5.98;70.96
72294;BME280;60632;49.236;8.398;2022-12-18T06:08:02;101860.56;;;-5.98;70.82
72294;BME280;60632;49.236;8.398;2022-12-18T06:11:03;101879.81;;;-5.96;71.26
72294;BME280;60632;49.236;8.398;2022-12-18T06:14:04;101873.03;;;-6.00;71.27
72294;BME280;60632;49.236;8.398;2022-12-18T06:17:05;101890.91;;;-6.05;70.85
72294;BME280;60632;49.236;8.398;2022-12-18T06:20:05;101887.88;;;-6.13;71.37
72294;BME280;60632;49.236;8.398;2022-12-18T06:23:07;101888.72;;;-6.13;71.43
72294;BME280;60632;49.236;8.398;2022-12-18T06:26:11;101893.66;;;-6.06;71.00
72294;BME280;60632;49.236;8.398;2022-12-18T06:29:11;101901.38;;;-5.89;71.32
72294;BME280;60632;49.236;8.398;2022-12-18T06:32:14;101896.78;;;-5.86;71.30
72294;BME280;60632;49.236;8.398;2022-12-18T06:35:15;101895.41;;;-5.77;70.87
72294;BME280;60632;49.236;8.398;2022-12-18T06:38:15;101887.59;;;-5.50;70.07
72294;BME280;60632;49.236;8.398;2022-12-18T06:41:17;101893.84;;;-5.36;69.63
72294;BME280;60632;49.236;8.398;2022-12-18T06:44:18;101909.50;;;-5.33;69.68
72294;BME280;60632;49.236;8.398;2022-12-18T06:47:19;101916.72;;;-5.35;70.17
72294;BME280;60632;49.236;8.398;2022-12-18T06:50:19;101923.88;;;-5.37;69.82
72294;BME280;60632;49.236;8.398;2022-12-18T06:53:19;101919.53;;;-5.24;69.91
72294;BME280;60632;49.236;8.398;2022-12-18T06:56:19;101913.50;;;-4.98;69.46
72294;BME280;60632;49.236;8.398;2022-12-18T06:59:20;101914.72;;;-4.75;69.37
72294;BME280;60632;49.236;8.398;2022-12-18T07:02:20;101915.34;;;-4.57;69.35
72294;BME280;60632;49.236;8.398;2022-12-18T07:05:20;101915.91;;;-4.52;69.27
72294;BME280;60632;49.236;8.398;2022-12-18T07:08:21;101924.97;;;-4.56;69.31
72294;BME280;60632;49.236;8.398;2022-12-18T07:11:21;101928.75;;;-4.60;69.56
72294;BME280;60632;49.236;8.398;2022-12-18T07:14:22;101935.97;;;-4.76;69.85
72294;BME280;60632;49.236;8.398;2022-12-18T07:17:22;101924.63;;;-4.93;69.56
72294;BME280;60632;49.236;8.398;2022-12-18T07:20:23;101930.50;;;-5.16;70.16
72294;BME280;60632;49.236;8.398;2022-12-18T07:23:23;101924.63;;;-5.35;70.51
72294;BME280;60632;49.236;8.398;2022-12-18T07:26:23;101934.44;;;-5.37;71.29
72294;BME280;60632;49.236;8.398;2022-12-18T07:29:24;101945.47;;;-5.31;70.42
72294;BME280;60632;49.236;8.398;2022-12-18T07:32:24;101950.59;;;-5.28;70.57
72294;BME280;60632;49.236;8.398;2022-12-18T07:35:24;101943.38;;;-5.40;70.64
72294;BME280;60632;49.236;8.398;2022-12-18T07:38:25;101948.16;;;-5.61;70.51
72294;BME280;60632;49.236;8.398;2022-12-18T07:41:25;101951.09;;;-5.81;71.31
72294;BME280;60632;49.236;8.398;2022-12-18T07:44:25;101954.50;;;-5.94;71.45
72294;BME280;60632;49.236;8.398;2022-12-18T07:47:26;101955.75;;;-6.01;71.64
72294;BME280;60632;49.236;8.398;2022-12-18T07:50:26;101957.66;;;-6.03;71.78
72294;BME280;60632;49.236;8.398;2022-12-18T07:53:27;101958.41;;;-6.01;71.10
72294;BME280;60632;49.236;8.398;2022-12-18T07:56:27;101969.91;;;-6.02;71.48
72294;BME280;60632;49.236;8.398;2022-12-18T07:59:28;101971.72;;;-5.88;70.91
72294;BME280;60632;49.236;8.398;2022-12-18T08:02:30;101968.50;;;-5.77;70.80
72294;BME280;60632;49.236;8.398;2022-12-18T08:05:30;101976.13;;;-5.73;70.95
72294;BME280;60632;49.236;8.398;2022-12-18T08:08:30;101972.97;;;-5.64;70.60
72294;BME280;60632;49.236;8.398;2022-12-18T08:11:31;101975.25;;;-5.57;70.94
72294;BME280;60632;49.236;8.398;2022-12-18T08:14:31;101978.19;;;-5.48;70.51
72294;BME280;60632;49.236;8.398;2022-12-18T08:17:32;101978.22;;;-5.33;70.02
72294;BME280;60632;49.236;8.398;2022-12-18T08:20:32;101971.25;;;-5.20;70.16
72294;BME280;60632;49.236;8.398;2022-12-18T08:23:32;101973.44;;;-4.98;69.44
72294;BME280;60632;49.236;8.398;2022-12-18T08:26:33;101971.09;;;-4.74;69.05
72294;BME280;60632;49.236;8.398;2022-12-18T08:29:33;101977.34;;;-4.61;68.76
72294;BME280;60632;49.236;8.398;2022-12-18T08:32:34;101978.75;;;-4.55;68.80
72294;BME280;60632;49.236;8.398;2022-12-18T08:35:35;101974.97;;;-4.65;69.21
72294;BME280;60632;49.236;8.398;2022-12-18T08:38:35;101967.91;;;-4.65;69.41
72294;BME280;60632;49.236;8.398;2022-12-18T08:41:36;101960.63;;;-4.61;69.38
72294;BME280;60632;49.236;8.398;2022-12-18T08:44:36;101960.13;;;-4.54;69.29
72294;BME280;60632;49.236;8.398;2022-12-18T08:47:39;101949.69;;;-4.42;69.23
72294;BME280;60632;49.236;8.398;2022-12-18T08:50:40;101952.22;;;-4.27;69.09
72294;BME280;60632;49.236;8.398;2022-12-18T08:53:41;101943.84;;;-4.06;68.57
72294;BME280;60632;49.236;8.398;2022-12-18T08:56:42;101947.06;;;-3.88;68.70
72294;BME280;60632;49.236;8.398;2022-12-18T08:59:42;101941.94;;;-3.77;68.05
72294;BME280;60632;49.236;8.398;2022-12-18T09:02:42;101927.53;;;-3.73;68.23
72294;BME280;60632;49.236;8.398;2022-12-18T09:05:43;101929.34;;;-3.61;68.14
72294;BME280;60632;49.236;8.398;2022-12-18T09:08:44;101929.25;;;-3.46;67.49
72294;BME280;60632;49.236;8.398;2022-12-18T09:11:44;101918.44;;;-3.43;67.71
72294;BME280;60632;49.236;8.398;2022-12-18T09:14:44;101925.47;;;-3.42;67.48
72294;BME280;60632;49.236;8.398;2022-12-18T09:17:45;101926.41;;;-3.43;67.79
72294;BME280;60632;49.236;8.398;2022-12-18T09:20:45;101937.63;;;-3.53;67.98
72294;BME280;60632;49.236;8.398;2022-12-18T09:23:55;101945.56;;;-3.53;68.52
72294;BME280;60632;49.236;8.398;2022-12-18T09:26:55;101952.81;;;-3.42;67.99
72294;BME280;60632;49.236;8.398;2022-12-18T09:29:56;101956.00;;;-3.24;67.73
72294;BME280;60632;49.236;8.398;2022-12-18T09:32:56;101948.81;;;-2.96;67.46
72294;BME280;60632;49.236;8.398;2022-12-18T09:35:56;101963.63;;;-2.81;66.78
72294;BME280;60632;49.236;8.398;2022-12-18T09:38:57;101970.00;;;-2.71;66.85
72294;BME280;60632;49.236;8.398;2022-12-18T09:41:57;101977.22;;;-2.73;66.64
72294;BME280;60632;49.236;8.398;2022-12-18T09:44:58;101975.75;;;-2.77;66.78
72294;BME280;60632;49.236;8.398;2022-12-18T09:48:00;101978.06;;;-2.85;67.31
72294;BME280;60632;49.236;8.398;2022-12-18T09:51:12;101987.75;;;-2.84;67.18
72294;BME280;60632;49.236;8.398;2022-12-18T09:54:22;101982.75;;;-2.76;67.27
72294;BME280;60632;49.236;8.398;2022-12-18T09:57:24;101979.72;;;-2.59;66.85
72294;BME280;60632;49.236;8.398;2022-12-18T10:00:25;101987.03;;;-2.49;67.11
72294;BME280;60632;49.236;8.398;2022-12-18T10:03:25;101983.09;;;-2.31;66.64
72294;BME280;60632;49.236;8.398;2022-12-18T10:09:34;101990.53;;;-1.99;66.25
72294;BME280;60632;49.236;8.398;2022-12-18T10:12:41;101995.84;;;-1.99;66.28
72294;BME280;60632;49.236;8.398;2022-12-18T10:19:01;101987.53;;;-1.95;66.64
72294;BME280;60632;49.236;8.398;2022-12-18T10:22:18;101974.19;;;-1.82;66.52
72294;BME280;60632;49.236;8.398;2022-12-18T10:28:29;101970.44;;;-1.55;66.17
72294;BME280;60632;49.236;8.398;2022-12-18T10:31:29;101967.44;;;-1.51;66.00
72294;BME280;60632;49.236;8.398;2022-12-18T10:34:30;101971.84;;;-1.38;65.99
72294;BME280;60632;49.236;8.398;2022-12-18T10:37:30;101964.34;;;-1.33;66.06
72294;BME280;60632;49.236;8.398;2022-12-18T10:40:31;101972.00;;;-1.18;65.84
72294;BME280;60632;49.236;8.398;2022-12-18T10:43:33;101956.91;;;-1.06;65.73
72294;BME280;60632;49.236;8.398;2022-12-18T10:46:33;101940.72;;;-1.03;65.74
72294;BME280;60632;49.236;8.398;2022-12-18T10:49:34;101938.66;;;-0.99;65.84
72294;BME280;60632;49.236;8.398;2022-12-18T10:52:35;101937.44;;;-0.95;65.90
72294;BME280;60632;49.236;8.398;2022-12-18T10:55:36;101946.16;;;-0.93;66.07
72294;BME280;60632;49.236;8.398;2022-12-18T10:58:38;101946.16;;;-0.82;66.08
72294;BME280;60632;49.236;8.398;2022-12-18T11:01:56;101950.75;;;-0.61;65.80
72294;BME280;60632;49.236;8.398;2022-12-18T11:04:57;101969.34;;;-0.39;65.51
72294;BME280;60632;49.236;8.398;2022-12-18T11:07:58;101978.56;;;-0.32;65.31
72294;BME280;60632;49.236;8.398;2022-12-18T11:10:58;101972.03;;;-0.39;65.55
72294;BME280;60632;49.236;8.398;2022-12-18T11:14:00;101970.34;;;-0.40;65.52
72294;BME280;60632;49.236;8.398;2022-12-18T11:17:02;101962.84;;;-0.57;65.95
72294;BME280;60632;49.236;8.398;2022-12-18T11:20:04;101955.09;;;-0.72;66.29
72294;BME280;60632;49.236;8.398;2022-12-18T11:23:10;101950.75;;;-0.73;66.39
72294;BME280;60632;49.236;8.398;2022-12-18T11:26:12;101943.72;;;-0.62;66.42
72294;BME280;60632;49.236;8.398;2022-12-18T11:29:17;101955.44;;;-0.42;66.23
72294;BME280;60632;49.236;8.398;2022-12-18T11:38:51;101945.13;;;-0.36;66.05
72294;BME280;60632;49.236;8.398;2022-12-18T11:41:53;101934.00;;;-0.30;66.17
72294;BME280;60632;49.236;8.398;2022-12-18T11:48:14;101934.94;;;-0.19;65.97
72294;BME280;60632;49.236;8.398;2022-12-18T11:51:22;101927.66;;;-0.17;66.07
72294;BME280;60632;49.236;8.398;2022-12-18T11:54:25;101931.84;;;-0.04;65.75
72294;BME280;60632;49.236;8.398;2022-12-18T12:00:26;101907.59;;;0.32;65.58
72294;BME280;60632;49.236;8.398;2022-12-18T12:03:33;101905.91;;;0.31;65.37
72294;BME280;60632;49.236;8.398;2022-12-18T12:06:44;101907.84;;;0.29;65.64
72294;BME280;60632;49.236;8.398;2022-12-18T12:16:02;101890.84;;;-0.12;66.31
72294;BME280;60632;49.236;8.398;2022-12-18T12:19:24;101886.22;;;-0.10;66.33
72294;BME280;60632;49.236;8.398;2022-12-18T12:25:47;101906.34;;;-0.17;66.51
72294;BME280;60632;49.236;8.398;2022-12-18T12:34:57;101902.84;;;0.14;66.24
72294;BME280;60632;49.236;8.398;2022-12-18T12:41:06;101905.41;;;0.37;65.87
72294;BME280;60632;49.236;8.398;2022-12-18T12:44:33;101903.19;;;0.42;65.72
72294;BME280;60632;49.236;8.398;2022-12-18T12:47:37;101905.06;;;0.51;65.63
72294;BME280;60632;49.236;8.398;2022-12-18T12:50:39;101899.69;;;0.62;65.34
72294;BME280;60632;49.236;8.398;2022-12-18T12:53:40;101892.69;;;0.71;65.49
72294;BME280;60632;49.236;8.398;2022-12-18T12:56:52;101897.19;;;0.70;65.38
72294;BME280;60632;49.236;8.398;2022-12-18T13:00:14;101892.38;;;0.64;65.50
72294;BME280;60632;49.236;8.398;2022-12-18T13:03:21;101867.22;;;0.57;65.76
72294;BME280;60632;49.236;8.398;2022-12-18T13:09:31;101860.91;;;0.58;65.87
72294;BME280;60632;49.236;8.398;2022-12-18T13:12:32;101851.41;;;0.65;65.47
72294;BME280;60632;49.236;8.398;2022-12-18T13:16:06;101857.16;;;0.70;65.50
72294;BME280;60632;49.236;8.398;2022-12-18T13:19:18;101850.50;;;0.55;65.75
72294;BME280;60632;49.236;8.398;2022-12-18T13:22:25;101849.72;;;0.43;66.10
72294;BME280;60632;49.236;8.398;2022-12-18T13:25:35;101848.69;;;0.35;66.28
72294;BME280;60632;49.236;8.398;2022-12-18T13:34:51;101830.66;;;0.48;66.00
72294;BME280;60632;49.236;8.398;2022-12-18T13:41:42;101835.44;;;0.23;66.25
72294;BME280;60632;49.236;8.398;2022-12-18T13:44:42;101832.22;;;0.09;66.68
72294;BME280;60632;49.236;8.398;2022-12-18T13:47:43;101823.22;;;0.00;66.94
72294;BME280;60632;49.236;8.398;2022-12-18T13:50:48;101826.75;;;-0.11;67.07
72294;BME280;60632;49.236;8.398;2022-12-18T13:53:53;101827.41;;;-0.18;67.09
72294;BME280;60632;49.236;8.398;2022-12-18T13:56:54;101830.97;;;-0.08;66.97
72294;BME280;60632;49.236;8.398;2022-12-18T13:59:55;101834.81;;;-0.01;67.10
72294;BME280;60632;49.236;8.398;2022-12-18T14:02:56;101838.22;;;0.01;66.80
72294;BME280;60632;49.236;8.398;2022-12-18T14:05:59;101828.25;;;0.03;67.04
72294;BME280;60632;49.236;8.398;2022-12-18T14:09:00;101834.53;;;0.13;66.95
72294;BME280;60632;49.236;8.398;2022-12-18T14:12:02;101833.59;;;0.03;66.91
72294;BME280;60632;49.236;8.398;2022-12-18T14:18:26;101828.09;;;-0.16;67.34
72294;BME280;60632;49.236;8.398;2022-12-18T14:21:29;101817.69;;;-0.19;67.21
72294;BME280;60632;49.236;8.398;2022-12-18T14:24:29;101826.66;;;-0.20;67.18
72294;BME280;60632;49.236;8.398;2022-12-18T14:27:30;101823.81;;;-0.29;67.16
72294;BME280;60632;49.236;8.398;2022-12-18T14:30:40;101821.16;;;-0.29;67.39
72294;BME280;60632;49.236;8.398;2022-12-18T14:33:41;101819.91;;;-0.25;67.15
72294;BME280;60632;49.236;8.398;2022-12-18T14:36:41;101820.84;;;-0.14;67.16
72294;BME280;60632;49.236;8.398;2022-12-18T14:42:54;101830.47;;;-0.02;66.85
72294;BME280;60632;49.236;8.398;2022-12-18T14:45:55;101837.22;;;0.02;66.84
72294;BME280;60632;49.236;8.398;2022-12-18T14:48:59;101830.47;;;-0.02;66.96
72294;BME280;60632;49.236;8.398;2022-12-18T14:52:02;101820.91;;;-0.05;66.96
72294;BME280;60632;49.236;8.398;2022-12-18T14:55:03;101823.66;;;-0.16;67.29
72294;BME280;60632;49.236;8.398;2022-12-18T14:58:04;101809.59;;;-0.18;67.32
72294;BME280;60632;49.236;8.398;2022-12-18T15:01:04;101812.38;;;-0.19;67.21
72294;BME280;60632;49.236;8.398;2022-12-18T15:04:05;101801.38;;;-0.26;67.43
72294;BME280;60632;49.236;8.398;2022-12-18T15:07:21;101798.28;;;-0.31;67.28
72294;BME280;60632;49.236;8.398;2022-12-18T15:10:25;101803.00;;;-0.35;67.36
72294;BME280;60632;49.236;8.398;2022-12-18T15:13:27;101806.13;;;-0.30;67.22
72294;BME280;60632;49.236;8.398;2022-12-18T15:16:27;101801.25;;;-0.25;67.22
72294;BME280;60632;49.236;8.398;2022-12-18T15:19:35;101785.28;;;-0.25;67.09
72294;BME280;60632;49.236;8.398;2022-12-18T15:22:36;101785.66;;;-0.29;67.30
72294;BME280;60632;49.236;8.398;2022-12-18T15:25:37;101788.19;;;-0.28;67.10
72294;BME280;60632;49.236;8.398;2022-12-18T15:28:45;101792.44;;;-0.25;67.11
72294;BME280;60632;49.236;8.398;2022-12-18T15:31:45;101804.03;;;-0.26;67.24
72294;BME280;60632;49.236;8.398;2022-12-18T15:35:08;101800.53;;;-0.27;67.15
72294;BME280;60632;49.236;8.398;2022-12-18T15:38:14;101793.53;;;-0.28;67.31
72294;BME280;60632;49.236;8.398;2022-12-18T15:41:15;101800.78;;;-0.30;67.11
72294;BME280;60632;49.236;8.398;2022-12-18T15:44:21;101799.09;;;-0.31;67.10
72294;BME280;60632;49.236;8.398;2022-12-18T15:47:22;101801.53;;;-0.28;67.23
72294;BME280;60632;49.236;8.398;2022-12-18T15:50:22;101788.78;;;-0.24;66.97
72294;BME280;60632;49.236;8.398;2022-12-18T15:53:23;101801.72;;;-0.19;66.72
72294;BME280;60632;49.236;8.398;2022-12-18T15:56:24;101799.78;;;-0.17;66.91
72294;BME280;60632;49.236;8.398;2022-12-18T15:59:43;101799.78;;;-0.17;66.75
72294;BME280;60632;49.236;8.398;2022-12-18T16:02:43;101796.94;;;-0.37;67.00
72294;BME280;60632;49.236;8.398;2022-12-18T16:05:44;101789.28;;;-0.62;67.47
72294;BME280;60632;49.236;8.398;2022-12-18T16:08:44;101786.69;;;-0.74;67.56
72294;BME280;60632;49.236;8.398;2022-12-18T16:11:44;101791.75;;;-0.71;67.64
72294;BME280;60632;49.236;8.398;2022-12-18T16:14:47;101792.00;;;-0.74;67.49
72294;BME280;60632;49.236;8.398;2022-12-18T16:17:48;101791.06;;;-0.95;68.00
72294;BME280;60632;49.236;8.398;2022-12-18T16:20:48;101791.69;;;-1.03;68.14
72294;BME280;60632;49.236;8.398;2022-12-18T16:23:49;101779.22;;;-1.02;67.97
72294;BME280;60632;49.236;8.398;2022-12-18T16:26:49;101786.28;;;-1.12;68.21
72294;BME280;60632;49.236;8.398;2022-12-18T16:29:51;101774.16;;;-1.05;68.02
72294;BME280;60632;49.236;8.398;2022-12-18T16:32:51;101785.38;;;-0.90;67.67
72294;BME280;60632;49.236;8.398;2022-12-18T16:35:52;101766.13;;;-0.83;67.67
72294;BME280;60632;49.236;8.398;2022-12-18T16:38:52;101762.38;;;-0.80;67.41
72294;BME280;60632;49.236;8.398;2022-12-18T16:41:52;101761.06;;;-0.86;67.39
72294;BME280;60632;49.236;8.398;2022-12-18T16:44:53;101765.44;;;-1.07;67.76
72294;BME280;60632;49.236;8.398;2022-12-18T16:47:53;101762.56;;;-1.27;68.22
72294;BME280;60632;49.236;8.398;2022-12-18T16:50:59;101768.63;;;-1.36;68.37
72294;BME280;60632;49.236;8.398;2022-12-18T16:54:00;101761.13;;;-1.31;68.37
72294;BME280;60632;49.236;8.398;2022-12-18T16:57:00;101759.91;;;-1.15;67.93
72294;BME280;60632;49.236;8.398;2022-12-18T17:00:00;101756.72;;;-0.98;67.61
72294;BME280;60632;49.236;8.398;2022-12-18T17:03:01;101757.16;;;-0.82;67.36
72294;BME280;60632;49.236;8.398;2022-12-18T17:06:04;101761.25;;;-0.66;67.14
72294;BME280;60632;49.236;8.398;2022-12-18T17:09:06;101758.28;;;-0.52;67.05
72294;BME280;60632;49.236;8.398;2022-12-18T17:12:08;101759.06;;;-0.40;66.87
72294;BME280;60632;49.236;8.398;2022-12-18T17:15:08;101755.75;;;-0.33;66.54
72294;BME280;60632;49.236;8.398;2022-12-18T17:18:09;101745.00;;;-0.31;66.49
72294;BME280;60632;49.236;8.398;2022-12-18T17:21:09;101756.06;;;-0.47;66.97
72294;BME280;60632;49.236;8.398;2022-12-18T17:24:10;101749.09;;;-0.59;67.08